DGVIP EDDH-EDLI
Flight info
| Callsign | DGVIP |
|---|---|
| Flight time | 0h 41m |
| Altitude | 18000 |
| Route | HABFU1G HABFU Y348 MAWEQ |
| Aircraft | B58T/L-SDFGRY/C |
Departure
| Time | 2026-04-22 16:52 |
|---|---|
| Airport | Hamburg Helmut Schmidt Airport (EDDH) |
Arrival
| Time | 2026-04-22 17:33 |
|---|---|
| Airport | Bielefeld Airport (EDLI) |
| Time | Latitude | Longitude | Altitude | Speed | Heading |
|---|---|---|---|---|---|
| 2026-04-22 15:51 | 53.62561 | 9.99561 | 41 ft | 0 kts | 170° |
| 2026-04-22 16:48 | 53.62555 | 9.99560 | 41 ft | 4 kts | 204° |
| 2026-04-22 16:48 | 53.62544 | 9.99499 | 41 ft | 9 kts | 258° |
| 2026-04-22 16:48 | 53.62531 | 9.99398 | 41 ft | 7 kts | 257° |
| 2026-04-22 16:49 | 53.62548 | 9.99344 | 41 ft | 8 kts | 349° |
| 2026-04-22 16:49 | 53.62596 | 9.99385 | 41 ft | 11 kts | 81° |
| 2026-04-22 16:49 | 53.62615 | 9.99553 | 41 ft | 14 kts | 79° |
| 2026-04-22 16:49 | 53.62628 | 9.99664 | 41 ft | 9 kts | 80° |
| 2026-04-22 16:50 | 53.62637 | 9.99750 | 41 ft | 4 kts | 76° |
| 2026-04-22 16:50 | 53.62638 | 9.99758 | 41 ft | 0 kts | 73° |
| 2026-04-22 16:50 | 53.62639 | 9.99763 | 41 ft | 3 kts | 73° |
| 2026-04-22 16:50 | 53.62667 | 9.99839 | 40 ft | 13 kts | 49° |
| 2026-04-22 16:51 | 53.62730 | 9.99865 | 40 ft | 4 kts | 331° |
| 2026-04-22 16:51 | 53.62731 | 9.99863 | 40 ft | 0 kts | 333° |
| 2026-04-22 16:51 | 53.62757 | 9.99841 | 40 ft | 32 kts | 333° |
| 2026-04-22 16:51 | 53.63214 | 9.99443 | 158 ft | 98 kts | 331° |
| 2026-04-22 16:52 | 53.63870 | 9.98878 | 607 ft | 116 kts | 328° |
| 2026-04-22 16:52 | 53.64629 | 9.98233 | 1096 ft | 125 kts | 330° |
| 2026-04-22 16:52 | 53.65393 | 9.97585 | 1647 ft | 121 kts | 331° |
| 2026-04-22 16:52 | 53.66132 | 9.96952 | 2240 ft | 118 kts | 331° |
| 2026-04-22 16:53 | 53.66851 | 9.96337 | 2816 ft | 115 kts | 332° |
| 2026-04-22 16:53 | 53.67547 | 9.95739 | 3388 ft | 108 kts | 332° |
| 2026-04-22 16:53 | 53.68208 | 9.95173 | 3922 ft | 106 kts | 333° |
| 2026-04-22 16:53 | 53.68864 | 9.94606 | 4418 ft | 105 kts | 334° |
| 2026-04-22 16:54 | 53.69505 | 9.94058 | 4919 ft | 101 kts | 335° |
| 2026-04-22 16:54 | 53.70139 | 9.93513 | 5346 ft | 103 kts | 335° |
| 2026-04-22 16:54 | 53.70759 | 9.92985 | 5753 ft | 105 kts | 335° |
| 2026-04-22 16:54 | 53.71411 | 9.92376 | 6116 ft | 111 kts | 323° |
| 2026-04-22 16:55 | 53.71744 | 9.91149 | 6466 ft | 125 kts | 277° |
| 2026-04-22 16:55 | 53.71527 | 9.89671 | 6823 ft | 134 kts | 256° |
| 2026-04-22 16:55 | 53.71228 | 9.88161 | 7150 ft | 138 kts | 258° |
| 2026-04-22 16:55 | 53.70920 | 9.86600 | 7495 ft | 141 kts | 257° |
| 2026-04-22 16:56 | 53.70607 | 9.85024 | 7869 ft | 142 kts | 258° |
| 2026-04-22 16:56 | 53.70293 | 9.83437 | 8245 ft | 143 kts | 257° |
| 2026-04-22 16:56 | 53.69978 | 9.81844 | 8621 ft | 144 kts | 257° |
| 2026-04-22 16:56 | 53.69661 | 9.80244 | 9010 ft | 144 kts | 258° |
| 2026-04-22 16:57 | 53.69343 | 9.78637 | 9401 ft | 145 kts | 257° |
| 2026-04-22 16:57 | 53.69024 | 9.77026 | 9789 ft | 145 kts | 258° |
| 2026-04-22 16:57 | 53.68703 | 9.75405 | 10189 ft | 146 kts | 258° |
| 2026-04-22 16:57 | 53.68382 | 9.73768 | 10557 ft | 147 kts | 258° |
| 2026-04-22 16:58 | 53.68168 | 9.72680 | 10799 ft | 148 kts | 258° |
| 2026-04-22 16:58 | 53.67733 | 9.70465 | 11295 ft | 149 kts | 257° |
| 2026-04-22 16:58 | 53.67403 | 9.68796 | 11665 ft | 150 kts | 257° |
| 2026-04-22 16:58 | 53.67072 | 9.67115 | 12044 ft | 152 kts | 257° |
| 2026-04-22 16:59 | 53.66737 | 9.65424 | 12426 ft | 152 kts | 256° |
| 2026-04-22 16:59 | 53.66401 | 9.63725 | 12814 ft | 153 kts | 256° |
| 2026-04-22 16:59 | 53.66063 | 9.62013 | 13201 ft | 155 kts | 256° |
| 2026-04-22 16:59 | 53.65721 | 9.60285 | 13606 ft | 156 kts | 256° |
| 2026-04-22 17:00 | 53.65333 | 9.58571 | 14004 ft | 159 kts | 242° |
| 2026-04-22 17:00 | 53.63540 | 9.56378 | 14748 ft | 162 kts | 208° |
| 2026-04-22 17:00 | 53.62549 | 9.55460 | 15115 ft | 163 kts | 208° |
| 2026-04-22 17:01 | 53.61551 | 9.54543 | 15490 ft | 164 kts | 207° |
| 2026-04-22 17:01 | 53.60550 | 9.53625 | 15868 ft | 164 kts | 208° |
| 2026-04-22 17:01 | 53.59547 | 9.52707 | 16250 ft | 165 kts | 208° |
| 2026-04-22 17:01 | 53.58539 | 9.51782 | 16636 ft | 165 kts | 208° |
| 2026-04-22 17:02 | 53.57527 | 9.50856 | 17027 ft | 166 kts | 207° |
| 2026-04-22 17:02 | 53.56512 | 9.49933 | 17420 ft | 166 kts | 205° |
| 2026-04-22 17:02 | 53.55436 | 9.49229 | 17821 ft | 166 kts | 197° |
| 2026-04-22 17:02 | 53.54349 | 9.48573 | 18225 ft | 166 kts | 198° |
| 2026-04-22 17:03 | 53.53239 | 9.47865 | 18360 ft | 181 kts | 199° |
| 2026-04-22 17:03 | 53.52015 | 9.47068 | 18364 ft | 191 kts | 199° |
| 2026-04-22 17:03 | 53.50776 | 9.46260 | 18367 ft | 196 kts | 199° |
| 2026-04-22 17:03 | 53.49471 | 9.45409 | 18361 ft | 200 kts | 199° |
| 2026-04-22 17:04 | 53.48179 | 9.44570 | 18363 ft | 204 kts | 199° |
| 2026-04-22 17:04 | 53.46820 | 9.43688 | 18367 ft | 209 kts | 199° |
| 2026-04-22 17:04 | 53.45452 | 9.42800 | 18364 ft | 212 kts | 199° |
| 2026-04-22 17:04 | 53.44065 | 9.41900 | 18359 ft | 214 kts | 199° |
| 2026-04-22 17:05 | 53.42687 | 9.41007 | 18360 ft | 216 kts | 199° |
| 2026-04-22 17:05 | 53.41266 | 9.40085 | 18360 ft | 217 kts | 199° |
| 2026-04-22 17:05 | 53.39859 | 9.39176 | 18364 ft | 217 kts | 199° |
| 2026-04-22 17:05 | 53.38468 | 9.38276 | 18360 ft | 218 kts | 199° |
| 2026-04-22 17:06 | 53.37052 | 9.37360 | 18359 ft | 218 kts | 200° |
| 2026-04-22 17:06 | 53.35638 | 9.36447 | 18359 ft | 218 kts | 200° |
| 2026-04-22 17:06 | 53.34222 | 9.35534 | 18359 ft | 218 kts | 200° |
| 2026-04-22 17:06 | 53.32789 | 9.34609 | 18355 ft | 218 kts | 200° |
| 2026-04-22 17:07 | 53.31372 | 9.33696 | 18353 ft | 218 kts | 200° |
| 2026-04-22 17:07 | 53.29976 | 9.32797 | 18360 ft | 218 kts | 200° |
| 2026-04-22 17:07 | 53.28563 | 9.31888 | 18360 ft | 218 kts | 200° |
| 2026-04-22 17:07 | 53.27145 | 9.30975 | 18355 ft | 218 kts | 200° |
| 2026-04-22 17:08 | 53.25726 | 9.30064 | 18349 ft | 218 kts | 200° |
| 2026-04-22 17:08 | 53.24310 | 9.29154 | 18352 ft | 218 kts | 200° |
| 2026-04-22 17:08 | 53.22894 | 9.28246 | 18353 ft | 218 kts | 200° |
| 2026-04-22 17:08 | 53.21476 | 9.27336 | 18356 ft | 218 kts | 200° |
| 2026-04-22 17:09 | 53.20058 | 9.26428 | 18363 ft | 218 kts | 200° |
| 2026-04-22 17:09 | 53.18641 | 9.25521 | 18362 ft | 218 kts | 200° |
| 2026-04-22 17:09 | 53.17701 | 9.24918 | 18360 ft | 218 kts | 200° |
| 2026-04-22 17:09 | 53.15806 | 9.23706 | 18366 ft | 218 kts | 200° |
| 2026-04-22 17:10 | 53.14390 | 9.22802 | 18367 ft | 218 kts | 200° |
| 2026-04-22 17:10 | 53.12970 | 9.21896 | 18368 ft | 218 kts | 200° |
| 2026-04-22 17:10 | 53.11552 | 9.20990 | 18370 ft | 218 kts | 200° |
| 2026-04-22 17:10 | 53.10132 | 9.20085 | 18362 ft | 218 kts | 200° |
| 2026-04-22 17:11 | 53.08716 | 9.19183 | 18351 ft | 218 kts | 200° |
| 2026-04-22 17:11 | 53.07295 | 9.18279 | 18360 ft | 219 kts | 200° |
| 2026-04-22 17:11 | 53.05864 | 9.17368 | 18358 ft | 220 kts | 200° |
| 2026-04-22 17:11 | 53.04433 | 9.16458 | 18359 ft | 221 kts | 200° |
| 2026-04-22 17:12 | 53.02995 | 9.15544 | 18363 ft | 221 kts | 200° |
| 2026-04-22 17:12 | 53.01557 | 9.14631 | 18362 ft | 221 kts | 200° |
| 2026-04-22 17:12 | 53.00117 | 9.13717 | 18365 ft | 221 kts | 200° |
| 2026-04-22 17:12 | 52.99650 | 9.13421 | 18366 ft | 221 kts | 200° |
| 2026-04-22 17:13 | 52.97298 | 9.11931 | 18367 ft | 222 kts | 200° |
| 2026-04-22 17:13 | 52.95800 | 9.10982 | 18363 ft | 221 kts | 200° |
| 2026-04-22 17:13 | 52.94359 | 9.10070 | 18367 ft | 221 kts | 200° |
| 2026-04-22 17:13 | 52.92918 | 9.09160 | 18363 ft | 221 kts | 200° |
| 2026-04-22 17:14 | 52.91966 | 9.08559 | 18362 ft | 222 kts | 200° |
| 2026-04-22 17:14 | 52.90041 | 9.07342 | 18366 ft | 222 kts | 200° |
| 2026-04-22 17:14 | 52.89075 | 9.06733 | 18225 ft | 228 kts | 200° |
| 2026-04-22 17:14 | 52.87568 | 9.05783 | 17959 ft | 235 kts | 200° |
| 2026-04-22 17:15 | 52.86549 | 9.05140 | 17790 ft | 238 kts | 200° |
| 2026-04-22 17:15 | 52.84471 | 9.03832 | 17442 ft | 240 kts | 200° |
| 2026-04-22 17:15 | 52.82905 | 9.02847 | 17182 ft | 241 kts | 200° |
| 2026-04-22 17:15 | 52.81337 | 9.01861 | 16923 ft | 241 kts | 200° |
| 2026-04-22 17:16 | 52.79770 | 9.00876 | 16666 ft | 241 kts | 200° |
| 2026-04-22 17:16 | 52.78215 | 8.99901 | 16377 ft | 238 kts | 200° |
| 2026-04-22 17:16 | 52.76698 | 8.98949 | 16039 ft | 229 kts | 200° |
| 2026-04-22 17:16 | 52.75228 | 8.98028 | 15702 ft | 224 kts | 200° |
| 2026-04-22 17:17 | 52.73783 | 8.97124 | 15368 ft | 220 kts | 200° |
| 2026-04-22 17:17 | 52.72362 | 8.96235 | 15039 ft | 217 kts | 200° |
| 2026-04-22 17:17 | 52.70957 | 8.95356 | 14716 ft | 215 kts | 200° |
| 2026-04-22 17:17 | 52.69560 | 8.94483 | 14398 ft | 213 kts | 201° |
| 2026-04-22 17:18 | 52.68221 | 8.93463 | 14073 ft | 211 kts | 209° |
| 2026-04-22 17:18 | 52.66929 | 8.92320 | 13722 ft | 210 kts | 209° |
| 2026-04-22 17:18 | 52.65642 | 8.91198 | 13375 ft | 208 kts | 208° |
| 2026-04-22 17:18 | 52.64362 | 8.90090 | 13028 ft | 207 kts | 208° |
| 2026-04-22 17:19 | 52.61834 | 8.87900 | 12353 ft | 203 kts | 208° |
| 2026-04-22 17:19 | 52.59358 | 8.85758 | 11690 ft | 200 kts | 208° |
| 2026-04-22 17:20 | 52.56910 | 8.83641 | 11036 ft | 197 kts | 208° |
| 2026-04-22 17:20 | 52.54511 | 8.81569 | 10407 ft | 195 kts | 208° |
| 2026-04-22 17:21 | 52.53314 | 8.80537 | 10082 ft | 194 kts | 209° |
| 2026-04-22 17:21 | 52.50944 | 8.78493 | 9393 ft | 191 kts | 208° |
| 2026-04-22 17:22 | 52.48496 | 8.76932 | 8717 ft | 188 kts | 191° |
| 2026-04-22 17:22 | 52.47218 | 8.76481 | 8384 ft | 187 kts | 193° |
| 2026-04-22 17:22 | 52.44709 | 8.75394 | 8000 ft | 188 kts | 195° |
| 2026-04-22 17:23 | 52.43440 | 8.74834 | 7830 ft | 189 kts | 195° |
| 2026-04-22 17:23 | 52.40898 | 8.73721 | 7487 ft | 189 kts | 195° |
| 2026-04-22 17:23 | 52.39631 | 8.73168 | 7356 ft | 186 kts | 195° |
| 2026-04-22 17:24 | 52.38405 | 8.72631 | 7349 ft | 179 kts | 195° |
| 2026-04-22 17:24 | 52.37212 | 8.72110 | 7342 ft | 177 kts | 195° |
| 2026-04-22 17:24 | 52.36018 | 8.71588 | 7341 ft | 177 kts | 195° |
| 2026-04-22 17:24 | 52.34827 | 8.71068 | 7342 ft | 177 kts | 195° |
| 2026-04-22 17:25 | 52.33635 | 8.70549 | 7340 ft | 177 kts | 195° |
| 2026-04-22 17:25 | 52.32448 | 8.70031 | 7343 ft | 177 kts | 195° |
| 2026-04-22 17:25 | 52.31259 | 8.69513 | 7342 ft | 177 kts | 195° |
| 2026-04-22 17:25 | 52.30069 | 8.68994 | 7343 ft | 177 kts | 195° |
| 2026-04-22 17:26 | 52.28876 | 8.68476 | 7342 ft | 177 kts | 194° |
| 2026-04-22 17:26 | 52.27700 | 8.67964 | 7343 ft | 177 kts | 195° |
| 2026-04-22 17:26 | 52.26493 | 8.67439 | 7343 ft | 177 kts | 195° |
| 2026-04-22 17:26 | 52.25303 | 8.66920 | 7342 ft | 176 kts | 195° |
| 2026-04-22 17:27 | 52.24117 | 8.66406 | 7346 ft | 177 kts | 194° |
| 2026-04-22 17:27 | 52.22928 | 8.65891 | 7314 ft | 179 kts | 195° |
| 2026-04-22 17:27 | 52.21698 | 8.65356 | 7148 ft | 186 kts | 195° |
| 2026-04-22 17:27 | 52.20438 | 8.64810 | 6985 ft | 189 kts | 194° |
| 2026-04-22 17:28 | 52.19177 | 8.64264 | 6830 ft | 190 kts | 194° |
| 2026-04-22 17:28 | 52.17898 | 8.63709 | 6656 ft | 191 kts | 194° |
| 2026-04-22 17:28 | 52.16632 | 8.63063 | 6475 ft | 191 kts | 201° |
| 2026-04-22 17:28 | 52.15398 | 8.62243 | 6294 ft | 192 kts | 202° |
| 2026-04-22 17:29 | 52.14168 | 8.61417 | 6112 ft | 191 kts | 202° |
| 2026-04-22 17:29 | 52.12932 | 8.60584 | 5858 ft | 193 kts | 202° |
| 2026-04-22 17:29 | 52.11685 | 8.59751 | 5608 ft | 194 kts | 202° |
| 2026-04-22 17:29 | 52.10438 | 8.58924 | 5358 ft | 194 kts | 202° |
| 2026-04-22 17:30 | 52.09186 | 8.58101 | 5107 ft | 194 kts | 202° |
| 2026-04-22 17:30 | 52.07941 | 8.57282 | 4847 ft | 192 kts | 202° |
| 2026-04-22 17:30 | 52.06706 | 8.56465 | 4589 ft | 191 kts | 202° |
| 2026-04-22 17:30 | 52.05473 | 8.55643 | 4331 ft | 192 kts | 202° |
| 2026-04-22 17:31 | 52.04244 | 8.54817 | 4075 ft | 191 kts | 202° |
| 2026-04-22 17:31 | 52.03013 | 8.53988 | 3823 ft | 192 kts | 202° |
| 2026-04-22 17:31 | 52.01797 | 8.53189 | 3444 ft | 185 kts | 201° |
| 2026-04-22 17:31 | 52.00620 | 8.52442 | 2811 ft | 176 kts | 201° |
| 2026-04-22 17:32 | 51.99479 | 8.51810 | 1946 ft | 172 kts | 196° |
| 2026-04-22 17:32 | 51.98344 | 8.51307 | 1284 ft | 160 kts | 192° |
| 2026-04-22 17:32 | 51.97382 | 8.51355 | 1110 ft | 124 kts | 143° |
| 2026-04-22 17:32 | 51.96943 | 8.52316 | 815 ft | 98 kts | 100° |
| 2026-04-22 17:33 | 51.96807 | 8.53004 | 622 ft | 97 kts | 109° |
| 2026-04-22 17:33 | 51.96502 | 8.54360 | 454 ft | 77 kts | 109° |
| 2026-04-22 17:33 | 51.96379 | 8.54902 | 457 ft | 17 kts | 110° |
| 2026-04-22 17:33 | 51.96373 | 8.55023 | 459 ft | 9 kts | 32° |
| 2026-04-22 17:34 | 51.96426 | 8.55018 | 460 ft | 9 kts | 335° |
| 2026-04-22 17:34 | 51.96477 | 8.54962 | 462 ft | 10 kts | 324° |
| 2026-04-22 17:34 | 51.96532 | 8.54910 | 466 ft | 4 kts | 28° |
| 2026-04-22 17:34 | 51.96554 | 8.54972 | 467 ft | 6 kts | 45° |
| 2026-04-22 17:35 | 51.96567 | 8.54977 | 469 ft | 0 kts | 349° |